Time;durP1;ratioP1;P1;durP2;ratioP2;P2;SDS_P1;SDS_P2;PMS_P1;PMS_P2;Temp;Humidity;BMP_temperature;BMP_pressure;BME280_temperature;BME280_humidity;BME280_pressure;Samples;Min_cycle;Max_cycle;Signal;HPM_P1;HPM_P2
2022/01/24 08:10:05;;;;;;;2.78;2.25;;;;;;;5.24;73.63;102225.22;6066098;23;20325;-93
2022/01/24 08:16:13;;;;;;;5.30;2.10;;;;;;;5.20;72.84;102195.41;4873558;29;20533;-94
2022/01/24 08:22:35;;;;;;;2.17;1.92;;;;;;;5.41;72.72;102222.66;4864032;29;20196;-94
2022/01/24 08:25:18;;;;;;;3.65;1.95;;;;;;;5.07;71.95;102164.75;4892843;29;20096;-95
2022/01/24 08:28:01;;;;;;;2.72;1.52;;;;;;;5.18;72.52;102188.44;4887676;29;20059;-94
2022/01/24 08:30:51;;;;;;;2.17;1.60;;;;;;;5.39;72.44;102230.53;4877309;29;20080;-94
2022/01/24 08:33:24;;;;;;;2.25;1.77;;;;;;;5.27;71.70;102206.84;4889531;29;20116;-94
2022/01/24 08:35:57;;;;;;;3.00;1.50;;;;;;;5.11;71.46;102169.13;4881686;29;20136;-95
2022/01/24 08:41:28;;;;;;;3.08;1.77;;;;;;;5.19;71.17;102175.31;5519926;23;20055;-94
2022/01/24 08:47:14;;;;;;;1.60;1.50;;;;;;;5.52;71.04;102241.94;4927112;29;20035;-96
2022/01/24 08:50:05;;;;;;;3.00;1.45;;;;;;;5.17;71.26;102174.44;4914362;29;20139;-95
2022/01/24 08:52:35;;;;;;;4.15;1.90;;;;;;;5.32;70.94;102214.75;4923099;29;20053;-96
2022/01/24 08:55:12;;;;;;;2.92;1.67;;;;;;;5.08;71.63;102192.75;4925463;29;20267;-95
2022/01/24 08:57:46;;;;;;;1.98;1.67;;;;;;;5.46;71.27;102255.09;4912122;29;20048;-95
2022/01/24 09:00:17;;;;;;;1.90;1.50;;;;;;;5.46;71.15;102252.44;4927166;29;20044;-94
2022/01/24 09:02:49;;;;;;;3.05;1.90;;;;;;;5.11;72.07;102190.16;4937350;28;20040;-96
2022/01/24 09:05:42;;;;;;;3.22;2.15;;;;;;;5.41;71.23;102230.53;4901905;29;20102;-94
2022/01/24 09:08:27;;;;;;;4.13;2.10;;;;;;;5.58;72.13;102261.25;4906778;29;20052;-95
2022/01/24 09:10:54;;;;;;;3.42;1.65;;;;;;;5.35;72.62;102214.75;4918991;29;20139;-95
2022/01/24 09:14:02;;;;;;;2.60;1.67;;;;;;;5.31;70.30;102205.09;4918287;29;20059;-95
2022/01/24 09:17:09;;;;;;;3.60;1.80;;;;;;;5.66;70.78;102252.53;4834519;29;20049;-96
2022/01/24 09:20:26;;;;;;;3.63;1.70;;;;;;;5.67;70.72;102256.91;4845079;29;20046;-95
2022/01/24 09:23:09;;;;;;;2.47;2.05;;;;;;;5.51;70.82;102217.41;4858663;29;20497;-96
2022/01/24 09:25:51;;;;;;;4.18;2.20;;;;;;;5.46;70.48;102224.44;4860017;29;20138;-94
2022/01/24 09:28:24;;;;;;;11.70;4.95;;;;;;;5.60;70.64;102245.50;4857017;29;20054;-94
2022/01/24 09:30:58;;;;;;;6.50;2.40;;;;;;;5.49;69.90;102218.31;4856715;29;20053;-96
2022/01/24 09:33:26;;;;;;;2.55;2.15;;;;;;;5.76;70.37;102252.53;4850103;29;20053;-95
2022/01/24 09:36:03;;;;;;;3.53;2.00;;;;;;;5.68;70.47;102232.34;4908568;29;20048;-96
2022/01/24 09:38:34;;;;;;;2.80;2.47;;;;;;;5.58;70.45;102215.69;4902753;29;20060;-96
2022/01/24 09:41:14;;;;;;;4.82;2.80;;;;;;;5.83;70.35;102256.91;4916703;29;20139;-96
2022/01/24 09:43:49;;;;;;;6.10;3.10;;;;;;;5.82;70.13;102246.44;4912246;29;20085;-96
2022/01/24 09:46:40;;;;;;;;;;;;;;;;;;;;;
2022/01/24 09:52:50;;;;;;;;;;;;;;;;;;;;;
2022/01/24 10:04:17;;;;;;;8.27;3.35;;;;;;;5.73;68.75;102175.41;5151923;23;20135;-92
2022/01/24 10:07:15;;;;;;;6.53;3.40;;;;;;;6.18;68.09;102240.34;4918662;29;20052;-93
2022/01/24 10:09:53;;;;;;;5.40;3.60;;;;;;;6.06;68.24;102216.69;4920649;29;20052;-92
2022/01/24 10:16:24;;;;;;;5.40;3.65;;;;;;;5.80;68.70;102203.47;4932075;29;20139;-93
2022/01/24 10:18:11;;;;;;;4.80;3.03;;;;;;;5.73;68.55;102170.16;4922372;29;20048;-91
2022/01/24 10:20:41;;;;;;;3.97;3.20;;;;;;;6.09;68.37;102220.19;4917168;29;20080;-92
2022/01/24 10:23:24;;;;;;;4.47;3.42;;;;;;;5.95;68.13;102212.31;4898393;29;20075;-91
2022/01/24 10:26:08;;;;;;;4.13;3.50;;;;;;;5.79;68.22;102180.69;4916733;29;20516;-92
2022/01/24 10:29:10;;;;;;;3.40;3.00;;;;;;;6.19;67.88;102244.75;4916378;29;20141;-94
2022/01/24 10:32:05;;;;;;;4.45;3.20;;;;;;;5.99;68.27;102208.78;4913855;29;20051;-94
2022/01/24 10:34:38;;;;;;;4.18;3.28;;;;;;;6.25;67.77;102240.38;4922724;29;20060;-94
2022/01/24 10:37:29;;;;;;;3.47;3.17;;;;;;;6.16;67.44;102205.28;4918175;29;20107;-94
2022/01/24 10:40:49;;;;;;;4.70;3.30;;;;;;;6.36;67.32;102236.84;4897771;29;20109;-93
2022/01/24 10:43:37;;;;;;;;;;;;;;;;;;;;;
2022/01/24 10:46:10;;;;;;;4.07;3.50;;;;;;;6.19;66.97;102197.38;4919789;29;20051;-92
2022/01/24 10:51:22;;;;;;;4.05;3.70;;;;;;;5.95;67.07;102167.59;6043018;23;20010;-94
2022/01/24 10:54:07;;;;;;;4.80;4.28;;;;;;;6.36;67.73;102235.09;5247894;23;20133;31
2022/01/24 10:57:26;;;;;;;4.55;4.10;;;;;;;6.38;67.21;102233.34;4905895;29;20052;-93
2022/01/24 11:01:08;;;;;;;5.60;4.18;;;;;;;6.34;67.15;102229.84;4906641;29;20043;-94
2022/01/24 11:05:08;;;;;;;6.60;4.22;;;;;;;6.38;67.54;102219.31;4904930;29;20077;-94
2022/01/24 11:08:26;;;;;;;4.07;3.78;;;;;;;6.43;67.03;102217.56;4908837;29;20048;-94
2022/01/24 11:32:21;;;;;;;5.65;4.20;;;;;;;6.23;66.15;102144.78;4917864;29;20048;-95
2022/01/24 11:35:38;;;;;;;4.78;4.32;;;;;;;6.35;66.56;102172.81;4875001;29;20048;-94
2022/01/24 11:39:09;;;;;;;4.97;4.20;;;;;;;6.43;66.44;102165.81;4886723;29;20053;-94
2022/01/24 11:46:23;;;;;;;6.25;3.88;;;;;;;6.29;65.92;102136.91;4821432;29;20058;-93
2022/01/24 11:52:26;;;;;;;4.07;3.78;;;;;;;6.58;66.71;102199.13;4898635;29;20076;-95
2022/01/24 12:02:59;;;;;;;4.15;3.33;;;;;;;6.40;66.32;102150.03;4892130;29;20136;-96
2022/01/24 12:16:43;;;;;;;;;;;;;;;6.81;65.48;102172.72;4876666;29;20048;-95
2022/01/24 12:19:35;;;;;;;3.22;2.90;;;;;;;6.36;66.33;102110.56;4886556;29;19924;-95
2022/01/24 12:22:59;;;;;;;3.03;2.83;;;;;;;6.71;66.55;102181.53;4874419;29;20534;-95
2022/01/24 12:25:57;;;;;;;3.28;2.72;;;;;;;6.72;66.02;102167.50;4864305;29;20108;-95
2022/01/24 12:29:09;;;;;;;3.60;2.80;;;;;;;6.80;66.39;102173.59;4883857;29;20057;-95
2022/01/24 12:31:59;;;;;;;4.50;3.33;;;;;;;6.66;66.00;102142.06;4881606;29;20045;-96
2022/01/24 12:38:52;;;;;;;3.33;2.90;;;;;;;6.78;65.21;102142.00;4854780;29;20502;-93
2022/01/24 12:41:38;;;;;;;4.93;2.83;;;;;;;6.55;66.04;102113.13;4852343;29;20056;-96
2022/01/24 12:47:48;;;;;;;7.85;2.83;;;;;;;6.84;66.67;102167.44;4905178;29;20989;-94
2022/01/24 12:57:37;;;;;;;3.72;3.15;;;;;;;6.85;65.35;102122.69;4892616;29;20076;-94
2022/01/24 13:00:10;;;;;;;;;;;;;;;7.02;65.06;102157.72;4918943;29;20048;-95
2022/01/24 13:02:57;;;;;;;6.32;3.35;;;;;;;6.94;65.15;102143.69;4917099;29;19924;-95
2022/01/24 13:05:39;;;;;;;3.85;2.78;;;;;;;7.03;65.23;102148.06;4920700;29;20048;-96
2022/01/24 13:12:09;;;;;;;3.58;2.92;;;;;;;6.66;65.74;102113.97;4901982;29;20068;-96
2022/01/24 13:41:57;;;;;;;3.00;2.45;;;;;;;6.56;67.21;102138.56;4893198;27;20049;-95
2022/01/24 13:44:32;;;;;;;4.50;2.63;;;;;;;6.64;67.57;102134.16;5098435;23;20048;-95
2022/01/24 13:47:32;;;;;;;4.13;2.97;;;;;;;6.30;67.26;102074.59;5445934;23;20084;-95
2022/01/24 13:50:21;;;;;;;6.65;3.17;;;;;;;6.29;67.89;102089.53;5058927;23;20048;-94
2022/01/24 13:57:11;;;;;;;4.30;2.38;;;;;;;6.34;67.60;102090.38;4869581;29;20090;-93
2022/01/24 13:59:42;;;;;;;2.95;2.42;;;;;;;6.33;67.83;102074.59;4837493;29;20164;-95
2022/01/24 14:02:33;;;;;;;3.72;2.60;;;;;;;6.38;67.35;102070.22;4866852;29;20080;-95
2022/01/24 14:05:15;;;;;;;2.60;2.40;;;;;;;6.58;67.26;102099.97;5054770;23;20064;-94
2022/01/24 14:07:53;;;;;;;3.95;2.80;;;;;;;6.40;67.13;102070.22;4884330;29;20049;-95
2022/01/24 14:10:24;;;;;;;3.22;2.63;;;;;;;6.61;67.94;102128.06;4896734;29;20048;-96
2022/01/24 14:12:55;;;;;;;2.90;2.60;;;;;;;6.44;68.14;102109.66;4898157;29;20056;-96
2022/01/24 14:18:30;;;;;;;4.45;2.97;;;;;;;6.46;68.11;102083.31;4888842;29;20068;-95
2022/01/24 14:21:13;;;;;;;4.85;2.60;;;;;;;6.43;67.60;102072.84;4905840;29;20081;-94
2022/01/24 14:26:33;;;;;;;;;;;;;;;6.76;67.72;102117.47;4910120;29;20064;-93
2022/01/24 14:31:47;;;;;;;6.32;2.97;;;;;;;6.67;68.31;102118.34;5195251;23;20064;-95
2022/01/24 14:34:24;;;;;;;3.53;3.03;;;;;;;6.49;68.81;102099.97;4917913;29;20149;-95
2022/01/24 14:37:17;;;;;;;3.80;3.30;;;;;;;6.28;68.18;102044.81;4916291;29;20499;-95
2022/01/24 14:40:01;;;;;;;4.72;3.42;;;;;;;6.24;68.03;102061.47;4916984;29;20598;-95
2022/01/24 14:42:46;;;;;;;5.97;3.17;;;;;;;6.30;68.90;102080.72;4917565;29;20108;-95
2022/01/24 14:54:42;;;;;;;3.97;3.20;;;;;;;6.45;69.36;102116.69;5391299;23;20118;-94
2022/01/24 14:57:16;;;;;;;6.07;3.70;;;;;;;6.19;69.38;102073.75;4886954;29;20481;-96
2022/01/24 14:59:56;;;;;;;6.93;3.50;;;;;;;5.97;69.19;102058.03;4880845;29;20049;-96
2022/01/24 15:05:47;;;;;;;6.20;4.10;;;;;;;6.26;70.60;102118.47;4898057;23;20053;-94
2022/01/24 15:08:28;;;;;;;;;;;;;;;;;;;;;
2022/01/24 15:11:25;;;;;;;;;;;;;;;;;;;;;
2022/01/24 15:14:44;;;;;;;;;;;;;;;;;;;;;
2022/01/24 15:17:48;;;;;;;6.15;4.40;;;;;;;5.90;70.55;102053.66;4913804;29;20115;-94
2022/01/24 15:26:28;;;;;;;7.60;4.70;;;;;;;5.98;70.74;102077.31;4918603;29;20164;-96
2022/01/24 15:29:18;;;;;;;5.18;4.32;;;;;;;5.75;70.91;102050.13;4924322;29;20048;-94
2022/01/24 15:32:03;;;;;;;6.50;4.88;;;;;;;5.73;71.18;102065.91;4918850;29;20628;-95
2022/01/24 15:35:15;;;;;;;;;;;;;;;;;;;;;
2022/01/24 15:38:04;;;;;;;5.35;4.75;;;;;;;5.63;71.38;102066.78;4902766;28;20056;-94
2022/01/24 15:41:03;;;;;;;;;;;;;;;;;;;;;
2022/01/24 16:29:15;;;;;;;9.95;6.10;;;;;;;5.47;73.69;102084.31;4945600;23;20049;-96
2022/01/24 16:31:49;;;;;;;8.80;6.00;;;;;;;5.42;73.76;102058.91;4883383;29;20056;-96
2022/01/24 16:35:11;;;;;;;7.35;5.50;;;;;;;5.63;72.89;102096.56;4878123;29;20440;-95
2022/01/24 16:37:49;;;;;;;8.20;6.10;;;;;;;5.64;73.58;102123.75;4837484;29;20150;-94
2022/01/24 16:40:27;;;;;;;9.55;6.53;;;;;;;5.26;73.93;102061.50;4879443;29;20064;-96
2022/01/24 16:43:24;;;;;;;7.70;6.90;;;;;;;5.25;74.30;102057.13;4891505;29;20041;-93
2022/01/24 16:55:03;;;;;;;9.40;7.35;;;;;;;5.40;74.16;102065.88;4996489;23;20048;-94
2022/01/24 16:57:46;;;;;;;9.43;6.80;;;;;;;5.49;74.09;102097.44;4919096;28;20092;-92
2022/01/24 17:00:27;;;;;;;11.90;7.22;;;;;;;5.59;74.47;102117.59;4914785;28;20056;-94
2022/01/24 17:02:55;;;;;;;11.50;8.07;;;;;;;5.35;74.69;102075.53;4919141;29;20468;-94
2022/01/24 17:05:50;;;;;;;12.20;7.55;;;;;;;5.36;75.08;102086.03;4915492;29;20056;-92
2022/01/24 17:08:50;;;;;;;10.00;8.00;;;;;;;5.17;74.88;102053.63;4910737;29;20064;-95
2022/01/24 17:11:38;;;;;;;11.57;7.93;;;;;;;5.17;74.82;102064.13;4908155;29;20045;-96
2022/01/24 17:14:24;;;;;;;9.20;7.97;;;;;;;5.28;75.17;102083.41;4942233;29;20060;-95
2022/01/24 17:17:29;;;;;;;9.93;8.25;;;;;;;5.38;74.93;102105.28;5050139;23;20087;-94
2022/01/24 17:20:13;;;;;;;11.30;8.25;;;;;;;5.33;75.64;102098.31;4878287;29;20061;-95
2022/01/24 17:23:03;;;;;;;10.00;8.02;;;;;;;5.47;75.59;102121.09;4972163;23;20063;-94
2022/01/24 17:26:27;;;;;;;10.88;9.02;;;;;;;5.42;75.38;102098.31;4942303;29;20040;-96
2022/01/24 17:28:53;;;;;;;12.88;8.93;;;;;;;5.23;75.50;102072.00;4941305;29;20055;-94
2022/01/24 17:31:23;;;;;;;11.00;8.18;;;;;;;5.35;75.58;102084.31;4949911;29;20035;-95
2022/01/24 17:33:56;;;;;;;13.32;8.85;;;;;;;5.16;75.45;102051.00;4954152;29;20040;-95
2022/01/24 17:36:29;;;;;;;11.23;8.65;;;;;;;5.12;75.33;102055.34;4949485;29;20036;-94
2022/01/24 17:39:01;;;;;;;10.73;8.35;;;;;;;5.39;75.20;102093.03;4946357;29;20047;-94
2022/01/24 17:41:31;;;;;;;10.48;8.82;;;;;;;5.20;75.32;102068.47;4947164;29;20097;-96
2022/01/24 17:44:20;;;;;;;;;;;;;;;5.47;76.03;102109.69;5025492;23;20067;-96
2022/01/24 17:47:16;;;;;;;12.27;8.70;;;;;;;5.50;75.95;102115.84;4907045;29;19927;-93
2022/01/24 17:49:43;;;;;;;11.05;8.88;;;;;;;5.51;75.45;102119.34;5212822;23;20085;-95
2022/01/24 17:52:11;;;;;;;11.93;9.00;;;;;;;5.53;76.03;102133.34;4901472;29;20067;-96
2022/01/24 17:54:53;;;;;;;12.23;9.88;;;;;;;5.17;75.78;102073.75;4897620;29;20480;-96
2022/01/24 17:57:35;;;;;;;11.27;9.70;;;;;;;5.30;75.67;102083.41;4897982;29;20056;-95
2022/01/24 18:12:43;;;;;;;14.52;10.45;;;;;;;5.52;75.92;102123.69;5546556;23;20067;-94
2022/01/24 18:15:10;;;;;;;14.70;10.55;;;;;;;5.14;75.61;102056.25;4942147;23;20049;-95
2022/01/24 18:18:30;;;;;;;13.93;10.48;;;;;;;5.29;75.36;102082.53;4900420;29;20099;-92
2022/01/24 18:21:21;;;;;;;17.23;10.80;;;;;;;5.29;76.12;102094.78;4905104;29;20083;-94
2022/01/24 18:27:29;;;;;;;16.08;10.57;;;;;;;5.10;75.46;102057.09;5106969;23;20037;-94
2022/01/24 18:30:11;;;;;;;13.20;9.85;;;;;;;5.15;75.68;102067.63;4867490;29;20105;-92
2022/01/24 18:32:40;;;;;;;15.02;12.55;;;;;;;5.32;75.77;102100.06;4870958;29;20053;-93
2022/01/24 18:41:22;;;;;;;15.88;11.77;;;;;;;5.27;75.89;102092.16;4916834;23;20520;-96
2022/01/24 18:44:00;;;;;;;17.42;11.43;;;;;;;5.48;75.75;102137.72;4882574;29;20410;-94
2022/01/24 18:46:28;;;;;;;17.48;12.63;;;;;;;5.29;75.81;102102.66;4884706;29;20060;-95
2022/01/24 18:48:58;;;;;;;17.63;12.75;;;;;;;5.06;75.95;102063.22;4890385;29;20600;-91
2022/01/24 18:51:37;;;;;;;15.52;11.13;;;;;;;5.20;76.10;102097.38;4884293;29;20064;-94
2022/01/24 18:54:08;;;;;;;15.20;10.30;;;;;;;5.17;76.00;102095.66;4878569;29;20053;-95
2022/01/24 18:56:40;;;;;;;15.88;9.82;;;;;;;5.38;76.58;102141.19;4876939;29;20150;-92
2022/01/24 18:59:09;;;;;;;15.27;11.48;;;;;;;5.36;76.13;102135.06;5130407;23;20413;-94
2022/01/24 19:01:36;;;;;;;13.35;9.80;;;;;;;5.19;76.12;102108.78;4896885;29;20488;-93
2022/01/24 19:04:06;;;;;;;13.25;9.30;;;;;;;5.33;76.44;102149.09;4898572;29;20080;-94
2022/01/24 19:06:56;;;;;;;12.30;9.88;;;;;;;5.33;76.11;102148.22;4897872;29;20094;-95
2022/01/24 19:09:47;;;;;;;15.52;9.57;;;;;;;5.20;76.34;102128.88;5394049;23;20066;-93
2022/01/24 19:12:19;;;;;;;12.35;9.60;;;;;;;4.92;76.40;102073.69;5073249;23;20138;-93
2022/01/24 19:15:01;;;;;;;13.88;11.15;;;;;;;4.87;76.62;102070.19;4912647;29;20056;-93
2022/01/24 19:17:34;;;;;;;14.02;10.98;;;;;;;4.91;76.80;102078.91;4920420;29;20076;-94
2022/01/24 19:23:22;;;;;;;17.83;11.48;;;;;;;5.08;76.33;102100.84;4901016;29;20048;-95
2022/01/24 19:25:59;;;;;;;15.55;11.10;;;;;;;4.90;76.37;102077.16;4910742;29;20059;-95
2022/01/24 19:28:31;;;;;;;13.25;10.18;;;;;;;5.22;76.87;102132.41;4895593;29;20056;-96
2022/01/24 19:31:05;;;;;;;16.85;10.70;;;;;;;5.16;76.87;102124.53;4966587;23;20101;-95
2022/01/24 19:33:40;;;;;;;14.13;10.68;;;;;;;5.28;76.69;102150.81;4892069;29;20139;-94
2022/01/24 19:36:08;;;;;;;16.10;10.52;;;;;;;5.27;76.79;102139.44;5207988;23;20159;-94
2022/01/24 19:38:42;;;;;;;17.33;11.00;;;;;;;5.06;76.73;102114.84;4915787;29;20064;-94
2022/01/24 19:41:17;;;;;;;15.77;11.55;;;;;;;4.92;76.46;102091.19;4920094;29;20048;-93
2022/01/24 19:44:08;;;;;;;17.40;10.88;;;;;;;5.27;77.01;102159.56;4894872;29;20167;-94
2022/01/24 19:46:48;;;;;;;;;;;;;;;;;;;;;
2022/01/24 19:49:46;;;;;;;21.75;15.23;;;;;;;5.04;76.94;102114.84;4901065;29;20087;-95
2022/01/24 19:52:31;;;;;;;;;;;;;;;;;;;;;
2022/01/24 19:58:23;;;;;;;30.48;23.70;;;;;;;5.04;76.63;102109.59;5318375;23;20052;-94
2022/01/24 20:00:57;;;;;;;19.00;15.13;;;;;;;4.98;76.46;102103.47;4905756;29;20096;-94
2022/01/24 20:03:57;;;;;;;;;;;;;;;;;;;;;
2022/01/24 20:06:50;;;;;;;;;;;;;;;;;;;;;
2022/01/24 20:09:42;;;;;;;15.15;12.70;;;;;;;4.99;76.92;102118.34;4927168;29;20373;-96
2022/01/24 20:12:10;;;;;;;15.52;11.90;;;;;;;4.96;77.18;102120.94;5277626;23;20092;-94
2022/01/24 20:14:39;;;;;;;18.23;12.00;;;;;;;4.90;77.40;102127.03;4922936;29;20091;-95
2022/01/24 20:17:23;;;;;;;15.18;12.25;;;;;;;4.76;78.06;102121.75;4885101;29;20093;-95
2022/01/24 20:19:51;;;;;;;17.88;12.88;;;;;;;4.56;78.09;102103.28;4888719;29;20136;-96
2022/01/24 20:22:23;;;;;;;18.60;12.75;;;;;;;4.76;78.63;102141.84;4886461;29;20053;-94
2022/01/24 20:24:57;;;;;;;16.92;11.85;;;;;;;4.71;78.85;102140.97;4885770;29;20120;-95
2022/01/24 20:27:29;;;;;;;16.67;12.63;;;;;;;4.43;78.73;102098.84;4876437;29;20056;-95
2022/01/24 20:30:18;;;;;;;20.67;13.10;;;;;;;4.69;78.16;102134.84;4880911;29;20722;-94
2022/01/24 20:32:50;;;;;;;16.45;12.35;;;;;;;4.68;78.59;102135.72;4880986;29;20076;-94
2022/01/24 20:35:27;;;;;;;17.63;11.63;;;;;;;4.62;78.26;102125.16;4878739;29;20057;-94
2022/01/24 20:37:55;;;;;;;16.23;11.50;;;;;;;4.84;78.14;102158.53;4882358;29;20063;-95
2022/01/24 20:40:25;;;;;;;;;;;;;;;4.89;78.45;102169.91;4891711;29;20090;-94
2022/01/24 20:42:53;;;;;;;22.38;15.88;;;;;;;4.97;77.54;102172.59;4884066;29;20283;-94
2022/01/24 20:45:22;;;;;;;19.23;12.90;;;;;;;4.56;77.48;102100.66;4884507;29;20072;-95
2022/01/24 20:47:54;;;;;;;;;;;;;;;4.92;77.88;102162.06;4879580;29;20052;-95
2022/01/24 20:50:30;;;;;;;14.00;10.25;;;;;;;4.72;77.21;102130.47;4906725;29;19938;-94
2022/01/24 20:53:03;;;;;;;12.05;9.70;;;;;;;4.51;77.31;102091.91;4904545;29;20055;-93
2022/01/24 20:55:32;;;;;;;17.98;10.85;;;;;;;4.72;77.85;102134.88;4905177;29;20037;-94
2022/01/24 20:58:01;;;;;;;14.45;11.00;;;;;;;4.89;77.93;102162.03;4900804;29;20090;-94
2022/01/24 21:00:47;;;;;;;14.75;10.23;;;;;;;4.90;78.16;102163.78;4909778;29;20064;-95
2022/01/24 21:03:37;;;;;;;14.25;9.82;;;;;;;4.58;78.08;102092.78;4896951;29;20079;-93
2022/01/24 21:06:13;;;;;;;15.57;9.75;;;;;;;4.78;77.69;102132.25;4906206;29;20340;-95
2022/01/24 21:08:44;;;;;;;16.65;11.00;;;;;;;4.63;77.95;102121.69;4898667;29;20060;-96
2022/01/24 21:11:28;;;;;;;15.98;10.45;;;;;;;4.47;78.27;102098.00;4892481;29;20064;-95
2022/01/24 21:14:03;;;;;;;15.07;10.65;;;;;;;4.42;78.33;102096.19;4902038;29;20072;-96
2022/01/24 21:16:48;;;;;;;15.75;11.50;;;;;;;4.53;78.10;102121.66;4914379;29;20049;-95
2022/01/24 21:19:35;;;;;;;16.00;11.40;;;;;;;4.70;78.76;102170.72;4905361;29;20344;-95
2022/01/24 21:22:16;;;;;;;15.95;11.18;;;;;;;4.54;78.88;102139.16;4896859;29;20147;-96
2022/01/24 21:24:57;;;;;;;15.32;11.10;;;;;;;4.54;78.95;102147.00;4908027;29;20184;-95
2022/01/24 21:27:27;;;;;;;17.48;11.15;;;;;;;4.41;79.45;102137.28;4906305;29;20398;-96
2022/01/24 21:30:02;;;;;;;16.80;11.18;;;;;;;4.55;79.72;102167.13;4904244;29;20499;-95
2022/01/24 21:33:15;;;;;;;16.98;11.57;;;;;;;4.52;79.92;102164.50;4912914;29;20056;-94
2022/01/24 21:35:57;;;;;;;18.85;12.02;;;;;;;4.06;79.89;102094.25;4917199;29;20045;-95
2022/01/24 21:38:42;;;;;;;20.55;12.20;;;;;;;4.35;79.99;102142.53;4907388;29;20080;-94
2022/01/24 21:41:13;;;;;;;13.48;10.80;;;;;;;4.31;80.03;102139.84;4904899;29;20495;-94
2022/01/24 21:43:54;;;;;;;17.15;11.18;;;;;;;4.28;80.24;102145.97;4903521;29;20056;-94
2022/01/24 21:46:24;;;;;;;16.77;10.65;;;;;;;4.19;80.17;102141.53;4893758;29;20060;-94
2022/01/24 21:49:05;;;;;;;13.90;11.02;;;;;;;3.93;80.30;102109.03;4888733;29;20083;-93
2022/01/24 21:51:35;;;;;;;18.13;11.57;;;;;;;4.05;80.33;102126.59;4908197;29;20116;-94
2022/01/24 21:54:04;;;;;;;14.93;10.57;;;;;;;4.22;80.61;102166.91;4914791;29;20055;-92
2022/01/24 22:00:55;;;;;;;17.60;11.57;;;;;;;4.12;81.65;102165.94;4905698;29;20052;-95
2022/01/24 22:04:18;;;;;;;15.93;11.27;;;;;;;3.91;81.53;102117.75;4846462;29;20077;-96
2022/01/24 22:07:05;;;;;;;16.30;11.48;;;;;;;3.94;81.84;102133.47;4844741;29;20057;-92
2022/01/24 22:09:54;;;;;;;17.92;12.30;;;;;;;3.86;81.95;102121.19;4834811;29;20065;-93
2022/01/24 22:12:54;;;;;;;17.13;12.35;;;;;;;4.04;82.07;102157.16;4832738;29;20061;-93
2022/01/24 22:15:36;;;;;;;21.70;12.50;;;;;;;3.58;82.50;102103.50;4851156;29;20152;-93
2022/01/24 22:18:06;;;;;;;19.73;13.25;;;;;;;3.73;82.75;102129.81;4847063;29;20149;-90
2022/01/24 22:21:15;;;;;;;;;;;;;;;;;;;;;
2022/01/24 22:27:51;;;;;;;18.63;13.65;;;;;;;3.61;84.07;102126.22;4829565;29;20053;-93
2022/01/24 22:31:14;;;;;;;21.50;13.90;;;;;;;3.34;84.23;102080.56;4838662;29;20442;-93
2022/01/24 22:33:49;;;;;;;19.23;13.25;;;;;;;3.28;84.21;102077.03;4851160;29;20109;-92
2022/01/24 22:36:28;;;;;;;19.73;13.50;;;;;;;3.26;84.74;102068.28;4889520;29;20049;-93
2022/01/24 22:39:00;;;;;;;18.60;13.30;;;;;;;3.62;84.00;102138.47;4895387;29;20390;-94
2022/01/24 22:44:38;;;;;;;23.23;14.02;;;;;;;3.40;85.22;102121.66;4894300;29;20476;-91
2022/01/24 22:47:14;;;;;;;21.00;13.80;;;;;;;3.36;85.36;102104.13;4910089;29;20570;-93
2022/01/24 22:49:43;;;;;;;21.95;13.88;;;;;;;3.10;85.39;102064.63;4893767;29;20080;-93
2022/01/24 22:52:25;;;;;;;22.05;14.50;;;;;;;3.04;84.59;102059.31;4906660;29;20761;-94
2022/01/24 22:54:56;;;;;;;21.00;13.38;;;;;;;3.43;85.33;102129.53;4900424;29;20066;-92
2022/01/24 22:57:52;;;;;;;21.67;13.68;;;;;;;3.15;85.65;102092.56;4842574;29;20093;-91
2022/01/24 23:01:07;;;;;;;20.40;14.40;;;;;;;3.07;86.07;102075.94;4837801;29;20058;-95
2022/01/24 23:03:41;;;;;;;25.98;14.80;;;;;;;3.09;86.18;102099.50;4842126;29;20058;-91
2022/01/24 23:06:49;;;;;;;22.25;14.73;;;;;;;3.14;86.97;102100.44;4836672;29;20058;-93
2022/01/24 23:09:43;;;;;;;;;;;;;;;;;;;;;
2022/01/24 23:12:27;;;;;;;23.58;15.38;;;;;;;2.99;87.20;102085.44;4836033;29;20097;-94
2022/01/24 23:18:11;;;;;;;26.27;15.55;;;;;;;2.91;87.02;102073.13;4901144;29;20051;-93
2022/01/24 23:21:07;;;;;;;23.30;14.70;;;;;;;2.93;87.05;102071.41;4882143;29;20056;-94
2022/01/24 23:23:40;;;;;;;23.92;15.75;;;;;;;2.76;87.00;102051.19;4897530;29;20127;-93
2022/01/24 23:26:26;;;;;;;22.48;14.77;;;;;;;3.09;87.35;102121.31;4888188;29;20100;-94
2022/01/24 23:29:08;;;;;;;24.25;15.38;;;;;;;2.68;88.10;102046.69;4896799;29;20389;-94
2022/01/24 23:31:59;;;;;;;24.50;15.43;;;;;;;2.70;88.28;102058.94;4901843;29;20818;-94
2022/01/24 23:43:08;;;;;;;23.08;15.18;;;;;;;2.88;88.88;102114.97;4896049;29;20100;-93
2022/01/24 23:45:58;;;;;;;30.42;15.73;;;;;;;2.73;89.09;102086.88;4896082;29;20064;-95
2022/01/24 23:48:28;;;;;;;28.38;15.80;;;;;;;2.52;89.71;102060.47;4878863;29;20045;-93
2022/01/24 23:51:01;;;;;;;23.45;15.57;;;;;;;2.50;89.32;102059.59;4897929;29;20045;-95
2022/01/24 23:53:31;;;;;;;25.70;15.23;;;;;;;2.51;89.01;102066.56;4907565;29;20147;-93
2022/01/24 23:56:33;;;;;;;22.50;15.25;;;;;;;2.81;89.51;102122.75;4911418;29;20048;-94
